sensor_id;sensor_type;location;lat;lon;timestamp;P1;durP1;ratioP1;P2;durP2;ratioP2
27495;SDS011;14929;51.336;9.416;2022-07-23T00:01:35;3.60;;;3.28;;
27495;SDS011;14929;51.336;9.416;2022-07-23T00:04:03;2.42;;;2.22;;
27495;SDS011;14929;51.336;9.416;2022-07-23T00:06:31;3.20;;;2.97;;
27495;SDS011;14929;51.336;9.416;2022-07-23T00:08:58;3.95;;;3.55;;
27495;SDS011;14929;51.336;9.416;2022-07-23T00:11:27;3.13;;;2.92;;
27495;SDS011;14929;51.336;9.416;2022-07-23T00:13:55;3.70;;;3.40;;
27495;SDS011;14929;51.336;9.416;2022-07-23T00:16:23;4.38;;;3.97;;
27495;SDS011;14929;51.336;9.416;2022-07-23T00:18:50;3.63;;;3.33;;
27495;SDS011;14929;51.336;9.416;2022-07-23T00:21:18;3.85;;;3.47;;
27495;SDS011;14929;51.336;9.416;2022-07-23T00:23:45;3.33;;;3.08;;
27495;SDS011;14929;51.336;9.416;2022-07-23T00:26:13;3.97;;;3.65;;
27495;SDS011;14929;51.336;9.416;2022-07-23T00:28:42;3.75;;;3.45;;
27495;SDS011;14929;51.336;9.416;2022-07-23T00:31:09;4.97;;;3.60;;
27495;SDS011;14929;51.336;9.416;2022-07-23T00:33:37;3.42;;;3.13;;
27495;SDS011;14929;51.336;9.416;2022-07-23T00:36:04;3.25;;;3.03;;
27495;SDS011;14929;51.336;9.416;2022-07-23T00:38:33;4.30;;;3.53;;
27495;SDS011;14929;51.336;9.416;2022-07-23T00:41:00;3.80;;;3.35;;
27495;SDS011;14929;51.336;9.416;2022-07-23T00:43:28;3.08;;;2.88;;
27495;SDS011;14929;51.336;9.416;2022-07-23T00:45:57;3.58;;;3.25;;
27495;SDS011;14929;51.336;9.416;2022-07-23T00:48:24;4.05;;;3.75;;
27495;SDS011;14929;51.336;9.416;2022-07-23T00:50:52;3.90;;;3.60;;
27495;SDS011;14929;51.336;9.416;2022-07-23T00:53:20;3.67;;;3.38;;
27495;SDS011;14929;51.336;9.416;2022-07-23T00:55:48;3.65;;;3.35;;
27495;SDS011;14929;51.336;9.416;2022-07-23T00:58:16;4.30;;;3.90;;
27495;SDS011;14929;51.336;9.416;2022-07-23T01:00:43;2.42;;;2.22;;
27495;SDS011;14929;51.336;9.416;2022-07-23T01:03:12;3.15;;;2.88;;
27495;SDS011;14929;51.336;9.416;2022-07-23T01:05:40;3.60;;;3.33;;
27495;SDS011;14929;51.336;9.416;2022-07-23T01:08:07;3.83;;;3.53;;
27495;SDS011;14929;51.336;9.416;2022-07-23T01:10:35;3.60;;;3.28;;
27495;SDS011;14929;51.336;9.416;2022-07-23T01:13:03;4.10;;;3.80;;
27495;SDS011;14929;51.336;9.416;2022-07-23T01:15:35;4.10;;;3.30;;
27495;SDS011;14929;51.336;9.416;2022-07-23T01:18:05;4.47;;;4.07;;
27495;SDS011;14929;51.336;9.416;2022-07-23T01:20:35;3.85;;;3.55;;
27495;SDS011;14929;51.336;9.416;2022-07-23T01:23:04;4.50;;;4.10;;
27495;SDS011;14929;51.336;9.416;2022-07-23T01:25:31;3.50;;;3.20;;
27495;SDS011;14929;51.336;9.416;2022-07-23T01:27:59;3.80;;;3.22;;
27495;SDS011;14929;51.336;9.416;2022-07-23T01:30:27;3.80;;;3.50;;
27495;SDS011;14929;51.336;9.416;2022-07-23T01:32:54;4.10;;;3.72;;
27495;SDS011;14929;51.336;9.416;2022-07-23T01:35:22;6.85;;;4.85;;
27495;SDS011;14929;51.336;9.416;2022-07-23T01:37:50;5.10;;;4.45;;
27495;SDS011;14929;51.336;9.416;2022-07-23T01:40:19;5.28;;;4.25;;
27495;SDS011;14929;51.336;9.416;2022-07-23T01:42:47;5.30;;;4.85;;
27495;SDS011;14929;51.336;9.416;2022-07-23T01:45:14;5.40;;;4.68;;
27495;SDS011;14929;51.336;9.416;2022-07-23T01:47:42;3.70;;;3.20;;
27495;SDS011;14929;51.336;9.416;2022-07-23T01:50:09;6.53;;;4.78;;
27495;SDS011;14929;51.336;9.416;2022-07-23T01:52:37;5.93;;;5.38;;
27495;SDS011;14929;51.336;9.416;2022-07-23T01:55:05;5.57;;;5.07;;
27495;SDS011;14929;51.336;9.416;2022-07-23T01:57:35;4.57;;;4.18;;
27495;SDS011;14929;51.336;9.416;2022-07-23T02:00:03;5.45;;;4.75;;
27495;SDS011;14929;51.336;9.416;2022-07-23T02:02:32;5.03;;;4.60;;
27495;SDS011;14929;51.336;9.416;2022-07-23T02:04:59;5.82;;;5.22;;
27495;SDS011;14929;51.336;9.416;2022-07-23T02:07:27;5.05;;;4.63;;
27495;SDS011;14929;51.336;9.416;2022-07-23T02:09:54;5.65;;;5.15;;
27495;SDS011;14929;51.336;9.416;2022-07-23T02:12:22;5.82;;;4.85;;
27495;SDS011;14929;51.336;9.416;2022-07-23T02:14:50;6.15;;;5.07;;
27495;SDS011;14929;51.336;9.416;2022-07-23T02:17:18;6.07;;;5.57;;
27495;SDS011;14929;51.336;9.416;2022-07-23T02:19:45;7.00;;;6.30;;
27495;SDS011;14929;51.336;9.416;2022-07-23T02:22:13;6.05;;;5.45;;
27495;SDS011;14929;51.336;9.416;2022-07-23T02:24:40;9.13;;;6.82;;
27495;SDS011;14929;51.336;9.416;2022-07-23T02:27:08;9.02;;;6.40;;
27495;SDS011;14929;51.336;9.416;2022-07-23T02:29:35;8.25;;;7.40;;
27495;SDS011;14929;51.336;9.416;2022-07-23T02:32:05;7.53;;;6.82;;
27495;SDS011;14929;51.336;9.416;2022-07-23T02:34:32;6.30;;;5.70;;
27495;SDS011;14929;51.336;9.416;2022-07-23T02:37:00;8.40;;;6.82;;
27495;SDS011;14929;51.336;9.416;2022-07-23T02:39:27;7.78;;;7.07;;
27495;SDS011;14929;51.336;9.416;2022-07-23T02:41:55;9.40;;;7.10;;
27495;SDS011;14929;51.336;9.416;2022-07-23T02:44:22;6.72;;;6.13;;
27495;SDS011;14929;51.336;9.416;2022-07-23T02:46:50;8.73;;;6.80;;
27495;SDS011;14929;51.336;9.416;2022-07-23T02:49:19;7.03;;;6.38;;
27495;SDS011;14929;51.336;9.416;2022-07-23T02:51:46;8.52;;;7.53;;
27495;SDS011;14929;51.336;9.416;2022-07-23T02:54:14;7.20;;;6.50;;
27495;SDS011;14929;51.336;9.416;2022-07-23T02:56:41;7.38;;;6.60;;
27495;SDS011;14929;51.336;9.416;2022-07-23T02:59:09;10.20;;;7.82;;
27495;SDS011;14929;51.336;9.416;2022-07-23T03:01:36;7.50;;;6.65;;
27495;SDS011;14929;51.336;9.416;2022-07-23T03:04:04;7.03;;;6.43;;
27495;SDS011;14929;51.336;9.416;2022-07-23T03:06:33;9.98;;;7.18;;
27495;SDS011;14929;51.336;9.416;2022-07-23T03:09:01;7.40;;;6.68;;
27495;SDS011;14929;51.336;9.416;2022-07-23T03:11:28;8.02;;;7.32;;
27495;SDS011;14929;51.336;9.416;2022-07-23T03:13:56;9.05;;;8.25;;
27495;SDS011;14929;51.336;9.416;2022-07-23T03:16:24;8.68;;;7.88;;
27495;SDS011;14929;51.336;9.416;2022-07-23T03:18:51;8.02;;;7.22;;
27495;SDS011;14929;51.336;9.416;2022-07-23T03:21:19;7.95;;;7.25;;
27495;SDS011;14929;51.336;9.416;2022-07-23T03:23:47;6.78;;;6.07;;
27495;SDS011;14929;51.336;9.416;2022-07-23T03:26:15;7.15;;;6.50;;
27495;SDS011;14929;51.336;9.416;2022-07-23T03:28:42;7.80;;;6.97;;
27495;SDS011;14929;51.336;9.416;2022-07-23T03:31:10;8.65;;;7.78;;
27495;SDS011;14929;51.336;9.416;2022-07-23T03:33:37;8.90;;;8.05;;
27495;SDS011;14929;51.336;9.416;2022-07-23T03:36:06;7.80;;;7.10;;
27495;SDS011;14929;51.336;9.416;2022-07-23T03:38:35;8.25;;;7.43;;
27495;SDS011;14929;51.336;9.416;2022-07-23T03:41:04;7.85;;;7.15;;
27495;SDS011;14929;51.336;9.416;2022-07-23T03:43:31;7.85;;;7.13;;
27495;SDS011;14929;51.336;9.416;2022-07-23T03:45:59;7.43;;;6.63;;
27495;SDS011;14929;51.336;9.416;2022-07-23T03:48:27;7.63;;;6.80;;
27495;SDS011;14929;51.336;9.416;2022-07-23T03:50:54;6.45;;;5.93;;
27495;SDS011;14929;51.336;9.416;2022-07-23T03:53:22;5.43;;;4.88;;
27495;SDS011;14929;51.336;9.416;2022-07-23T03:55:49;5.35;;;4.95;;
27495;SDS011;14929;51.336;9.416;2022-07-23T03:58:18;5.90;;;5.40;;
27495;SDS011;14929;51.336;9.416;2022-07-23T04:00:46;5.18;;;4.75;;
27495;SDS011;14929;51.336;9.416;2022-07-23T04:03:13;5.18;;;4.70;;
27495;SDS011;14929;51.336;9.416;2022-07-23T04:05:41;6.00;;;5.50;;
27495;SDS011;14929;51.336;9.416;2022-07-23T04:08:08;7.60;;;6.15;;
27495;SDS011;14929;51.336;9.416;2022-07-23T04:10:36;6.60;;;5.47;;
27495;SDS011;14929;51.336;9.416;2022-07-23T04:13:03;4.32;;;3.97;;
27495;SDS011;14929;51.336;9.416;2022-07-23T04:15:32;6.80;;;6.20;;
27495;SDS011;14929;51.336;9.416;2022-07-23T04:18:00;6.68;;;6.07;;
27495;SDS011;14929;51.336;9.416;2022-07-23T04:20:27;4.35;;;3.97;;
27495;SDS011;14929;51.336;9.416;2022-07-23T04:22:55;3.67;;;3.38;;
27495;SDS011;14929;51.336;9.416;2022-07-23T04:25:22;5.30;;;4.80;;
27495;SDS011;14929;51.336;9.416;2022-07-23T04:27:50;4.10;;;3.80;;
27495;SDS011;14929;51.336;9.416;2022-07-23T04:30:17;8.23;;;7.13;;
27495;SDS011;14929;51.336;9.416;2022-07-23T04:32:46;5.68;;;5.18;;
27495;SDS011;14929;51.336;9.416;2022-07-23T04:35:14;6.57;;;5.97;;
27495;SDS011;14929;51.336;9.416;2022-07-23T04:37:41;4.95;;;4.53;;
27495;SDS011;14929;51.336;9.416;2022-07-23T04:40:09;4.10;;;3.70;;
27495;SDS011;14929;51.336;9.416;2022-07-23T04:42:38;4.95;;;4.50;;
27495;SDS011;14929;51.336;9.416;2022-07-23T04:45:06;4.32;;;3.92;;
27495;SDS011;14929;51.336;9.416;2022-07-23T04:47:34;3.83;;;3.53;;
27495;SDS011;14929;51.336;9.416;2022-07-23T04:50:04;3.50;;;3.20;;
27495;SDS011;14929;51.336;9.416;2022-07-23T04:52:32;5.28;;;4.60;;
27495;SDS011;14929;51.336;9.416;2022-07-23T04:54:59;6.22;;;5.72;;
27495;SDS011;14929;51.336;9.416;2022-07-23T04:57:27;6.93;;;6.22;;
27495;SDS011;14929;51.336;9.416;2022-07-23T04:59:54;4.85;;;4.45;;
27495;SDS011;14929;51.336;9.416;2022-07-23T05:02:22;5.15;;;4.65;;
27495;SDS011;14929;51.336;9.416;2022-07-23T05:04:49;6.50;;;5.88;;
27495;SDS011;14929;51.336;9.416;2022-07-23T05:07:18;6.93;;;6.20;;
27495;SDS011;14929;51.336;9.416;2022-07-23T05:09:46;5.95;;;5.20;;
27495;SDS011;14929;51.336;9.416;2022-07-23T05:12:14;5.80;;;5.25;;
27495;SDS011;14929;51.336;9.416;2022-07-23T05:14:42;4.82;;;4.43;;
27495;SDS011;14929;51.336;9.416;2022-07-23T05:17:09;6.65;;;6.05;;
27495;SDS011;14929;51.336;9.416;2022-07-23T05:19:37;7.63;;;5.82;;
27495;SDS011;14929;51.336;9.416;2022-07-23T05:22:04;6.53;;;5.80;;
27495;SDS011;14929;51.336;9.416;2022-07-23T05:24:33;5.97;;;5.32;;
27495;SDS011;14929;51.336;9.416;2022-07-23T05:27:01;6.53;;;5.93;;
27495;SDS011;14929;51.336;9.416;2022-07-23T05:29:29;6.35;;;5.75;;
27495;SDS011;14929;51.336;9.416;2022-07-23T05:31:56;6.35;;;5.80;;
27495;SDS011;14929;51.336;9.416;2022-07-23T05:34:24;5.30;;;4.80;;
27495;SDS011;14929;51.336;9.416;2022-07-23T05:36:51;5.57;;;5.13;;
27495;SDS011;14929;51.336;9.416;2022-07-23T05:39:19;6.63;;;5.95;;
27495;SDS011;14929;51.336;9.416;2022-07-23T05:41:48;5.93;;;5.40;;
27495;SDS011;14929;51.336;9.416;2022-07-23T05:44:15;8.25;;;6.38;;
27495;SDS011;14929;51.336;9.416;2022-07-23T05:46:43;6.68;;;6.07;;
27495;SDS011;14929;51.336;9.416;2022-07-23T05:49:10;7.88;;;7.18;;
27495;SDS011;14929;51.336;9.416;2022-07-23T05:51:38;6.90;;;6.20;;
27495;SDS011;14929;51.336;9.416;2022-07-23T05:54:05;5.95;;;5.45;;
27495;SDS011;14929;51.336;9.416;2022-07-23T05:56:32;5.32;;;4.70;;
27495;SDS011;14929;51.336;9.416;2022-07-23T05:59:01;6.70;;;5.53;;
27495;SDS011;14929;51.336;9.416;2022-07-23T06:01:29;6.28;;;5.68;;
27495;SDS011;14929;51.336;9.416;2022-07-23T06:03:56;6.00;;;5.55;;
27495;SDS011;14929;51.336;9.416;2022-07-23T06:06:24;7.43;;;6.10;;
27495;SDS011;14929;51.336;9.416;2022-07-23T06:08:51;5.28;;;4.78;;
27495;SDS011;14929;51.336;9.416;2022-07-23T06:11:19;7.13;;;6.43;;
27495;SDS011;14929;51.336;9.416;2022-07-23T06:13:46;5.68;;;5.15;;
27495;SDS011;14929;51.336;9.416;2022-07-23T06:16:15;5.65;;;5.25;;
27495;SDS011;14929;51.336;9.416;2022-07-23T06:18:43;5.90;;;5.30;;
27495;SDS011;14929;51.336;9.416;2022-07-23T06:21:10;7.45;;;6.53;;
27495;SDS011;14929;51.336;9.416;2022-07-23T06:23:38;5.82;;;4.60;;
27495;SDS011;14929;51.336;9.416;2022-07-23T06:26:05;5.25;;;4.75;;
27495;SDS011;14929;51.336;9.416;2022-07-23T06:28:33;7.07;;;6.47;;
27495;SDS011;14929;51.336;9.416;2022-07-23T06:31:00;6.20;;;5.63;;
27495;SDS011;14929;51.336;9.416;2022-07-23T06:33:29;6.28;;;5.68;;
27495;SDS011;14929;51.336;9.416;2022-07-23T06:35:57;6.65;;;5.45;;
27495;SDS011;14929;51.336;9.416;2022-07-23T06:38:24;5.20;;;4.75;;
27495;SDS011;14929;51.336;9.416;2022-07-23T06:40:52;5.28;;;4.78;;
27495;SDS011;14929;51.336;9.416;2022-07-23T06:43:19;9.82;;;6.55;;
27495;SDS011;14929;51.336;9.416;2022-07-23T06:45:47;7.47;;;6.15;;
27495;SDS011;14929;51.336;9.416;2022-07-23T06:48:14;5.90;;;5.28;;
27495;SDS011;14929;51.336;9.416;2022-07-23T06:50:43;7.00;;;5.63;;
27495;SDS011;14929;51.336;9.416;2022-07-23T06:53:11;6.30;;;5.75;;
27495;SDS011;14929;51.336;9.416;2022-07-23T06:55:38;6.57;;;5.60;;
27495;SDS011;14929;51.336;9.416;2022-07-23T06:58:06;5.30;;;4.80;;
27495;SDS011;14929;51.336;9.416;2022-07-23T07:00:35;4.85;;;4.45;;
27495;SDS011;14929;51.336;9.416;2022-07-23T07:03:02;4.93;;;4.53;;
27495;SDS011;14929;51.336;9.416;2022-07-23T07:05:30;5.38;;;4.90;;
27495;SDS011;14929;51.336;9.416;2022-07-23T07:07:59;5.53;;;4.00;;
27495;SDS011;14929;51.336;9.416;2022-07-23T07:10:27;6.10;;;5.60;;
27495;SDS011;14929;51.336;9.416;2022-07-23T07:12:54;8.65;;;5.53;;
27495;SDS011;14929;51.336;9.416;2022-07-23T07:15:22;7.10;;;5.60;;
27495;SDS011;14929;51.336;9.416;2022-07-23T07:17:50;4.25;;;3.85;;
27495;SDS011;14929;51.336;9.416;2022-07-23T07:20:17;4.93;;;4.53;;
27495;SDS011;14929;51.336;9.416;2022-07-23T07:22:45;4.80;;;4.40;;
27495;SDS011;14929;51.336;9.416;2022-07-23T07:25:14;3.90;;;3.60;;
27495;SDS011;14929;51.336;9.416;2022-07-23T07:27:42;4.68;;;4.32;;
27495;SDS011;14929;51.336;9.416;2022-07-23T07:30:10;7.40;;;5.40;;
27495;SDS011;14929;51.336;9.416;2022-07-23T07:32:38;4.63;;;4.28;;
27495;SDS011;14929;51.336;9.416;2022-07-23T07:35:06;3.95;;;3.65;;
27495;SDS011;14929;51.336;9.416;2022-07-23T07:37:35;3.40;;;3.10;;
27495;SDS011;14929;51.336;9.416;2022-07-23T07:40:03;3.53;;;3.22;;
27495;SDS011;14929;51.336;9.416;2022-07-23T07:42:32;3.90;;;3.35;;
27495;SDS011;14929;51.336;9.416;2022-07-23T07:45:00;3.03;;;2.72;;
27495;SDS011;14929;51.336;9.416;2022-07-23T07:47:28;3.20;;;3.00;;
27495;SDS011;14929;51.336;9.416;2022-07-23T07:49:55;3.28;;;3.03;;
27495;SDS011;14929;51.336;9.416;2022-07-23T07:52:22;3.45;;;2.65;;
27495;SDS011;14929;51.336;9.416;2022-07-23T07:54:50;2.92;;;2.67;;
27495;SDS011;14929;51.336;9.416;2022-07-23T07:57:17;3.92;;;2.88;;
27495;SDS011;14929;51.336;9.416;2022-07-23T07:59:46;3.13;;;2.83;;
27495;SDS011;14929;51.336;9.416;2022-07-23T08:02:14;3.05;;;2.42;;
27495;SDS011;14929;51.336;9.416;2022-07-23T08:04:41;3.33;;;2.95;;
27495;SDS011;14929;51.336;9.416;2022-07-23T08:07:09;2.90;;;2.70;;
27495;SDS011;14929;51.336;9.416;2022-07-23T08:09:38;2.72;;;2.53;;
27495;SDS011;14929;51.336;9.416;2022-07-23T08:12:06;3.03;;;2.78;;
27495;SDS011;14929;51.336;9.416;2022-07-23T08:14:34;4.60;;;3.28;;
27495;SDS011;14929;51.336;9.416;2022-07-23T08:17:03;3.33;;;2.75;;
27495;SDS011;14929;51.336;9.416;2022-07-23T08:19:30;3.42;;;2.72;;
27495;SDS011;14929;51.336;9.416;2022-07-23T08:21:58;4.07;;;2.90;;
27495;SDS011;14929;51.336;9.416;2022-07-23T08:24:25;3.05;;;2.85;;
27495;SDS011;14929;51.336;9.416;2022-07-23T08:26:53;3.30;;;3.05;;
27495;SDS011;14929;51.336;9.416;2022-07-23T08:29:20;3.72;;;3.38;;
27495;SDS011;14929;51.336;9.416;2022-07-23T08:31:48;4.15;;;3.78;;
27495;SDS011;14929;51.336;9.416;2022-07-23T08:34:17;3.13;;;2.83;;
27495;SDS011;14929;51.336;9.416;2022-07-23T08:36:44;5.05;;;2.88;;
27495;SDS011;14929;51.336;9.416;2022-07-23T08:39:12;4.35;;;3.58;;
27495;SDS011;14929;51.336;9.416;2022-07-23T08:41:39;2.75;;;2.55;;
27495;SDS011;14929;51.336;9.416;2022-07-23T08:44:07;2.75;;;2.55;;
27495;SDS011;14929;51.336;9.416;2022-07-23T08:46:35;4.03;;;2.72;;
27495;SDS011;14929;51.336;9.416;2022-07-23T08:49:03;3.55;;;2.88;;
27495;SDS011;14929;51.336;9.416;2022-07-23T08:51:32;3.40;;;3.10;;
27495;SDS011;14929;51.336;9.416;2022-07-23T08:54:00;3.60;;;3.30;;
27495;SDS011;14929;51.336;9.416;2022-07-23T08:56:28;3.30;;;3.10;;
27495;SDS011;14929;51.336;9.416;2022-07-23T08:58:55;3.95;;;3.65;;
27495;SDS011;14929;51.336;9.416;2022-07-23T09:01:23;3.25;;;2.97;;
27495;SDS011;14929;51.336;9.416;2022-07-23T09:03:51;3.55;;;3.25;;
27495;SDS011;14929;51.336;9.416;2022-07-23T09:06:18;3.05;;;2.78;;
27495;SDS011;14929;51.336;9.416;2022-07-23T09:08:47;3.28;;;2.58;;
27495;SDS011;14929;51.336;9.416;2022-07-23T09:11:15;2.90;;;2.63;;
27495;SDS011;14929;51.336;9.416;2022-07-23T09:13:45;3.45;;;3.05;;
27495;SDS011;14929;51.336;9.416;2022-07-23T09:16:15;3.45;;;2.88;;
27495;SDS011;14929;51.336;9.416;2022-07-23T09:18:46;2.85;;;2.65;;
27495;SDS011;14929;51.336;9.416;2022-07-23T09:21:19;2.90;;;2.70;;
27495;SDS011;14929;51.336;9.416;2022-07-23T09:23:51;3.55;;;3.25;;
27495;SDS011;14929;51.336;9.416;2022-07-23T09:26:27;3.47;;;2.90;;
27495;SDS011;14929;51.336;9.416;2022-07-23T09:29:04;2.80;;;2.60;;
27495;SDS011;14929;51.336;9.416;2022-07-23T09:31:41;3.92;;;2.78;;
27495;SDS011;14929;51.336;9.416;2022-07-23T09:34:15;4.00;;;3.63;;
27495;SDS011;14929;51.336;9.416;2022-07-23T09:36:46;4.60;;;2.92;;
27495;SDS011;14929;51.336;9.416;2022-07-23T09:39:16;3.25;;;3.05;;
27495;SDS011;14929;51.336;9.416;2022-07-23T09:41:52;5.30;;;4.80;;
27495;SDS011;14929;51.336;9.416;2022-07-23T09:44:20;3.15;;;2.60;;
27495;SDS011;14929;51.336;9.416;2022-07-23T09:46:49;2.50;;;2.30;;
27495;SDS011;14929;51.336;9.416;2022-07-23T09:49:19;7.25;;;3.60;;
27495;SDS011;14929;51.336;9.416;2022-07-23T09:51:52;4.63;;;2.70;;
27495;SDS011;14929;51.336;9.416;2022-07-23T09:54:24;3.55;;;2.92;;
27495;SDS011;14929;51.336;9.416;2022-07-23T09:56:56;3.70;;;3.40;;
27495;SDS011;14929;51.336;9.416;2022-07-23T09:59:25;3.00;;;2.53;;
27495;SDS011;14929;51.336;9.416;2022-07-23T10:01:56;2.42;;;2.28;;
27495;SDS011;14929;51.336;9.416;2022-07-23T10:04:26;2.83;;;2.63;;
27495;SDS011;14929;51.336;9.416;2022-07-23T10:06:55;2.92;;;2.63;;
27495;SDS011;14929;51.336;9.416;2022-07-23T10:09:27;2.30;;;2.10;;
27495;SDS011;14929;51.336;9.416;2022-07-23T10:11:56;2.83;;;2.63;;
27495;SDS011;14929;51.336;9.416;2022-07-23T10:14:30;2.50;;;2.30;;
27495;SDS011;14929;51.336;9.416;2022-07-23T10:16:59;2.70;;;2.50;;
27495;SDS011;14929;51.336;9.416;2022-07-23T10:19:27;2.70;;;2.50;;
27495;SDS011;14929;51.336;9.416;2022-07-23T10:21:57;2.35;;;2.15;;
27495;SDS011;14929;51.336;9.416;2022-07-23T10:24:36;2.35;;;2.20;;
27495;SDS011;14929;51.336;9.416;2022-07-23T10:30:19;1.92;;;1.67;;
27495;SDS011;14929;51.336;9.416;2022-07-23T10:32:52;2.28;;;2.17;;
27495;SDS011;14929;51.336;9.416;2022-07-23T10:35:33;2.47;;;2.28;;
27495;SDS011;14929;51.336;9.416;2022-07-23T10:38:07;2.78;;;2.58;;
27495;SDS011;14929;51.336;9.416;2022-07-23T10:40:54;1.77;;;1.67;;
27495;SDS011;14929;51.336;9.416;2022-07-23T10:43:24;2.22;;;2.13;;
27495;SDS011;14929;51.336;9.416;2022-07-23T10:45:52;2.72;;;2.40;;
27495;SDS011;14929;51.336;9.416;2022-07-23T10:48:21;3.17;;;2.88;;
27495;SDS011;14929;51.336;9.416;2022-07-23T10:53:55;2.05;;;1.95;;
27495;SDS011;14929;51.336;9.416;2022-07-23T11:02:43;3.35;;;3.05;;
27495;SDS011;14929;51.336;9.416;2022-07-23T11:05:14;2.40;;;2.20;;
27495;SDS011;14929;51.336;9.416;2022-07-23T11:10:45;3.00;;;2.80;;
27495;SDS011;14929;51.336;9.416;2022-07-23T11:13:27;2.33;;;2.22;;
27495;SDS011;14929;51.336;9.416;2022-07-23T11:16:21;2.40;;;2.20;;
27495;SDS011;14929;51.336;9.416;2022-07-23T11:21:40;2.17;;;1.92;;
27495;SDS011;14929;51.336;9.416;2022-07-23T11:24:18;2.45;;;1.90;;
27495;SDS011;14929;51.336;9.416;2022-07-23T11:26:49;3.33;;;2.22;;
27495;SDS011;14929;51.336;9.416;2022-07-23T11:29:44;2.50;;;2.40;;
27495;SDS011;14929;51.336;9.416;2022-07-23T11:32:36;2.53;;;2.42;;
27495;SDS011;14929;51.336;9.416;2022-07-23T11:35:24;2.72;;;2.53;;
27495;SDS011;14929;51.336;9.416;2022-07-23T11:38:02;2.03;;;1.92;;
27495;SDS011;14929;51.336;9.416;2022-07-23T11:40:31;2.63;;;2.42;;
27495;SDS011;14929;51.336;9.416;2022-07-23T11:43:00;3.20;;;2.90;;
27495;SDS011;14929;51.336;9.416;2022-07-23T11:45:32;2.33;;;2.13;;
27495;SDS011;14929;51.336;9.416;2022-07-23T11:48:02;2.17;;;2.08;;
27495;SDS011;14929;51.336;9.416;2022-07-23T11:50:32;1.98;;;1.88;;
27495;SDS011;14929;51.336;9.416;2022-07-23T11:53:00;2.30;;;1.95;;
27495;SDS011;14929;51.336;9.416;2022-07-23T11:55:28;3.10;;;2.80;;
27495;SDS011;14929;51.336;9.416;2022-07-23T11:57:56;2.70;;;2.50;;
27495;SDS011;14929;51.336;9.416;2022-07-23T12:00:24;1.70;;;1.60;;
27495;SDS011;14929;51.336;9.416;2022-07-23T12:02:55;2.95;;;2.10;;
27495;SDS011;14929;51.336;9.416;2022-07-23T12:05:26;2.08;;;1.85;;
27495;SDS011;14929;51.336;9.416;2022-07-23T12:07:56;2.38;;;2.28;;
27495;SDS011;14929;51.336;9.416;2022-07-23T12:10:25;2.67;;;2.42;;
27495;SDS011;14929;51.336;9.416;2022-07-23T12:12:55;2.63;;;2.15;;
27495;SDS011;14929;51.336;9.416;2022-07-23T12:15:25;2.92;;;2.63;;
27495;SDS011;14929;51.336;9.416;2022-07-23T12:17:58;2.22;;;2.13;;
27495;SDS011;14929;51.336;9.416;2022-07-23T12:20:28;4.82;;;2.55;;
27495;SDS011;14929;51.336;9.416;2022-07-23T12:22:59;3.15;;;2.38;;
27495;SDS011;14929;51.336;9.416;2022-07-23T12:25:31;2.63;;;2.42;;
27495;SDS011;14929;51.336;9.416;2022-07-23T12:28:02;2.65;;;2.45;;
27495;SDS011;14929;51.336;9.416;2022-07-23T12:30:34;2.13;;;2.03;;
27495;SDS011;14929;51.336;9.416;2022-07-23T12:33:07;2.80;;;2.60;;
27495;SDS011;14929;51.336;9.416;2022-07-23T12:35:37;3.65;;;2.83;;
27495;SDS011;14929;51.336;9.416;2022-07-23T12:38:07;1.90;;;1.80;;
27495;SDS011;14929;51.336;9.416;2022-07-23T12:40:37;2.58;;;2.38;;
27495;SDS011;14929;51.336;9.416;2022-07-23T12:43:11;2.80;;;2.60;;
27495;SDS011;14929;51.336;9.416;2022-07-23T12:45:47;1.90;;;1.80;;
27495;SDS011;14929;51.336;9.416;2022-07-23T12:48:26;2.03;;;1.92;;
27495;SDS011;14929;51.336;9.416;2022-07-23T12:50:56;2.35;;;2.25;;
27495;SDS011;14929;51.336;9.416;2022-07-23T12:53:26;2.47;;;2.38;;
27495;SDS011;14929;51.336;9.416;2022-07-23T12:56:03;3.72;;;3.42;;
27495;SDS011;14929;51.336;9.416;2022-07-23T12:58:40;2.88;;;2.67;;
27495;SDS011;14929;51.336;9.416;2022-07-23T13:01:16;3.05;;;2.85;;
27495;SDS011;14929;51.336;9.416;2022-07-23T13:03:56;2.53;;;2.33;;
27495;SDS011;14929;51.336;9.416;2022-07-23T13:06:29;3.13;;;2.85;;
27495;SDS011;14929;51.336;9.416;2022-07-23T13:08:58;3.38;;;3.08;;
27495;SDS011;14929;51.336;9.416;2022-07-23T13:11:26;2.70;;;2.50;;
27495;SDS011;14929;51.336;9.416;2022-07-23T13:13:53;3.15;;;2.95;;
27495;SDS011;14929;51.336;9.416;2022-07-23T13:16:21;3.60;;;3.35;;
27495;SDS011;14929;51.336;9.416;2022-07-23T13:18:49;3.40;;;3.10;;
27495;SDS011;14929;51.336;9.416;2022-07-23T13:21:18;3.08;;;2.88;;
27495;SDS011;14929;51.336;9.416;2022-07-23T13:23:45;3.17;;;2.97;;
27495;SDS011;14929;51.336;9.416;2022-07-23T13:26:13;3.38;;;3.17;;
27495;SDS011;14929;51.336;9.416;2022-07-23T13:28:40;2.92;;;2.72;;
27495;SDS011;14929;51.336;9.416;2022-07-23T13:31:08;2.38;;;2.17;;
27495;SDS011;14929;51.336;9.416;2022-07-23T13:33:36;3.15;;;2.95;;
27495;SDS011;14929;51.336;9.416;2022-07-23T13:36:04;2.70;;;2.50;;
27495;SDS011;14929;51.336;9.416;2022-07-23T13:38:34;3.15;;;2.95;;
27495;SDS011;14929;51.336;9.416;2022-07-23T13:41:01;2.50;;;2.40;;
27495;SDS011;14929;51.336;9.416;2022-07-23T13:43:29;2.67;;;2.58;;
27495;SDS011;14929;51.336;9.416;2022-07-23T13:45:57;2.80;;;2.63;;
27495;SDS011;14929;51.336;9.416;2022-07-23T13:48:25;3.47;;;3.28;;
27495;SDS011;14929;51.336;9.416;2022-07-23T13:50:54;4.40;;;4.10;;
27495;SDS011;14929;51.336;9.416;2022-07-23T13:53:22;3.55;;;3.35;;
27495;SDS011;14929;51.336;9.416;2022-07-23T13:55:52;3.15;;;2.95;;
27495;SDS011;14929;51.336;9.416;2022-07-23T13:58:20;3.17;;;2.88;;
27495;SDS011;14929;51.336;9.416;2022-07-23T14:00:49;3.25;;;3.05;;
27495;SDS011;14929;51.336;9.416;2022-07-23T14:03:19;2.35;;;2.25;;
27495;SDS011;14929;51.336;9.416;2022-07-23T14:05:49;3.22;;;3.03;;
27495;SDS011;14929;51.336;9.416;2022-07-23T14:08:16;3.53;;;3.22;;
27495;SDS011;14929;51.336;9.416;2022-07-23T14:10:44;3.17;;;2.92;;
27495;SDS011;14929;51.336;9.416;2022-07-23T14:13:13;2.97;;;2.78;;
27495;SDS011;14929;51.336;9.416;2022-07-23T14:15:40;2.92;;;2.72;;
27495;SDS011;14929;51.336;9.416;2022-07-23T14:18:08;2.78;;;2.58;;
27495;SDS011;14929;51.336;9.416;2022-07-23T14:20:36;3.30;;;2.70;;
27495;SDS011;14929;51.336;9.416;2022-07-23T14:23:03;4.25;;;2.97;;
27495;SDS011;14929;51.336;9.416;2022-07-23T14:25:31;3.13;;;2.83;;
27495;SDS011;14929;51.336;9.416;2022-07-23T14:27:58;2.47;;;2.38;;
27495;SDS011;14929;51.336;9.416;2022-07-23T14:30:27;2.90;;;2.67;;
27495;SDS011;14929;51.336;9.416;2022-07-23T14:32:55;2.92;;;2.45;;
27495;SDS011;14929;51.336;9.416;2022-07-23T14:35:22;2.75;;;2.55;;
27495;SDS011;14929;51.336;9.416;2022-07-23T14:37:50;3.00;;;2.80;;
27495;SDS011;14929;51.336;9.416;2022-07-23T14:40:18;2.50;;;2.30;;
27495;SDS011;14929;51.336;9.416;2022-07-23T14:42:45;2.85;;;2.63;;
27495;SDS011;14929;51.336;9.416;2022-07-23T14:45:13;2.30;;;2.10;;
27495;SDS011;14929;51.336;9.416;2022-07-23T14:47:41;2.50;;;2.38;;
27495;SDS011;14929;51.336;9.416;2022-07-23T14:50:09;2.05;;;1.95;;
27495;SDS011;14929;51.336;9.416;2022-07-23T14:52:36;2.78;;;2.58;;
27495;SDS011;14929;51.336;9.416;2022-07-23T14:55:04;1.85;;;1.75;;
27495;SDS011;14929;51.336;9.416;2022-07-23T14:57:33;2.30;;;2.05;;
27495;SDS011;14929;51.336;9.416;2022-07-23T15:00:00;2.28;;;2.17;;
27495;SDS011;14929;51.336;9.416;2022-07-23T15:02:28;2.53;;;2.30;;
27495;SDS011;14929;51.336;9.416;2022-07-23T15:04:57;2.63;;;2.53;;
27495;SDS011;14929;51.336;9.416;2022-07-23T15:07:27;2.75;;;2.55;;
27495;SDS011;14929;51.336;9.416;2022-07-23T15:09:55;3.03;;;2.30;;
27495;SDS011;14929;51.336;9.416;2022-07-23T15:12:23;2.85;;;2.55;;
27495;SDS011;14929;51.336;9.416;2022-07-23T15:14:51;3.13;;;2.60;;
27495;SDS011;14929;51.336;9.416;2022-07-23T15:17:18;2.05;;;1.95;;